Acme, Wyoming
Current Conditions -  °F | °C
As of 7:53 PM on Saturday 22 Nov 2014 (Local Time) from KSHR Reporting Station
Overcast Overcast  
Wind Chill: -1°   Ceiling: 9000
Heat Index:   Visibility: 10mi
Dew Point: -2°   Wind: 7mph
Humidity: 73%   Direction: 280°W
Pressure: 29.52"   Gusts: NA
Location:  44.8885°N, 107.104°W
Report Text: KSHR 230253Z AUTO 28006KT 10SM OVC090 02/M02 A2952 RMK AO2 SLP019 60000 T00221022 52015 TSNO
Loading
Personal Weather Stations






























Interactive Weather Map New forecast layout! Learn more

10-Day Weather Forecast

Advertisements
Track Severe Weather on mobile